Clorinda, Argentina
Current Conditions -  °F | °C
As of 11:00 AM on Friday 31 Oct 2014 (Local Time) from SGAS Reporting Station
Thunderstorm Thunderstorm  
Wind Chill: 22°   Ceiling: 1700
Heat Index: 22°   Visibility: 6mi
Dew Point: 22°   Wind: 13mph
Humidity: 100%   Direction: 30°NNE
Pressure: 29.8"   Gusts: NA
Location:  25.29°S, 57.72°W
Report Text: SGAS 311400Z 03011KT 9999 -TSRA BKN017 FEW040CB BKN070 22/22 Q1009
Loading
Personal Weather Stations






























Interactive Weather Map
Tropical Storm Tracking
New forecast layout! Learn more

10-Day Weather Forecast

Advertisements
Track Severe Weather on mobile